Time;durP1;ratioP1;P1;durP2;ratioP2;P2;SDS_P1;SDS_P2;PMS_P1;PMS_P2;Temp;Humidity;BMP_temperature;BMP_pressure;BME280_temperature;BME280_humidity;BME280_pressure;Samples;Min_cycle;Max_cycle;Signal;HPM_P1;HPM_P2
2023/05/02 05:23:50;;;;;;;;;;;;;;;13.92;61.08;97134.47;4232336;27;10294;-78
2023/05/02 05:25:53;;;;;;;;;;;;;;;14.25;60.73;97133.63;4220419;28;6294;-75
2023/05/02 05:27:55;;;;;;;;;;;;;;;14.49;60.44;97140.94;4223924;28;5117;-76
2023/05/02 05:29:58;;;;;;;;;;;;;;;14.69;59.99;97145.41;4230726;28;5612;-77
2023/05/02 05:32:02;;;;;;;;;;;;;;;14.80;59.63;97139.41;4232476;28;5712;-77
2023/05/02 05:34:05;;;;;;;;;;;;;;;14.93;59.37;97144.69;4231403;28;5763;-78
2023/05/02 05:36:09;;;;;;;;;;;;;;;14.97;59.23;97145.91;4229611;28;5717;-78
2023/05/02 05:38:12;;;;;;;;;;;;;;;15.05;59.30;97139.50;4232869;28;5664;-78
2023/05/02 05:40:16;;;;;;;;;;;;;;;15.11;58.72;97147.47;4227245;28;5760;-77
2023/05/02 05:42:19;;;;;;;;;;;;;;;15.19;58.86;97140.28;4228926;28;5616;-78
2023/05/02 05:44:24;;;;;;;;;;;;;;;15.22;58.74;97137.19;4225736;28;5761;-79
2023/05/02 05:46:27;;;;;;;;;;;;;;;15.23;58.56;97141.47;4229707;28;5637;-77
2023/05/02 05:48:30;;;;;;;;;;;;;;;15.33;58.39;97149.81;4231637;28;5616;-76
2023/05/02 05:50:33;;;;;;;;;;;;;;;15.40;58.22;97156.75;4232044;28;5616;-77
2023/05/02 05:52:36;;;;;;;;;;;;;;;15.44;58.19;97154.47;4232233;28;5613;-77
2023/05/02 05:54:40;;;;;;;;;;;;;;;15.52;58.00;97156.88;4230922;28;5899;-77
2023/05/02 05:56:48;;;;;;;;;;;;;;;15.64;57.82;97152.50;4231991;28;5635;-77
2023/05/02 05:58:50;;;;;;;;;;;;;;;15.83;57.69;97152.56;4216178;28;5635;-76
2023/05/02 06:00:53;;;;;;;;;;;;;;;15.93;57.62;97155.56;4229643;28;5612;-77
2023/05/02 06:02:56;;;;;;;;;;;;;;;16.05;57.36;97153.00;4232101;28;5652;-78
2023/05/02 06:04:59;;;;;;;;;;;;;;;16.15;57.03;97147.97;4215534;28;5827;-77
2023/05/02 06:07:02;;;;;;;;;;;;;;;16.23;57.16;97153.84;4231173;28;5651;-77
2023/05/02 06:09:06;;;;;;;;;;;;;;;16.32;56.98;97159.72;4232036;28;5649;-76
2023/05/02 06:11:10;;;;;;;;;;;;;;;16.41;57.06;97176.25;4232159;28;5660;-77
2023/05/02 06:13:15;;;;;;;;;;;;;;;16.51;56.94;97173.88;4232059;28;5620;-80
2023/05/02 06:15:18;;;;;;;;;;;;;;;16.56;56.75;97171.38;4218490;28;5181;-77
2023/05/02 06:17:21;;;;;;;;;;;;;;;16.59;56.52;97177.09;4231799;28;5762;-78
2023/05/02 06:19:24;;;;;;;;;;;;;;;16.62;56.42;97178.50;4232039;28;5878;-78
2023/05/02 06:21:27;;;;;;;;;;;;;;;16.63;56.38;97182.78;4231999;28;5652;-78
2023/05/02 06:23:31;;;;;;;;;;;;;;;16.66;56.34;97186.88;4227332;28;5673;-78
2023/05/02 06:25:37;;;;;;;;;;;;;;;16.71;56.23;97185.19;4220966;28;5952;-77
2023/05/02 06:27:40;;;;;;;;;;;;;;;16.70;56.24;97182.75;4221124;28;7234;-79
2023/05/02 06:29:46;;;;;;;;;;;;;;;16.72;56.10;97173.47;4220812;28;5616;-78
2023/05/02 06:31:49;;;;;;;;;;;;;;;16.80;56.10;97178.53;4221225;28;5672;-78
2023/05/02 06:33:52;;;;;;;;;;;;;;;16.79;55.75;97181.44;4221090;28;5637;-78
2023/05/02 06:35:56;;;;;;;;;;;;;;;16.74;55.81;97176.75;4220864;28;5625;-77
2023/05/02 06:38:00;;;;;;;;;;;;;;;16.76;55.88;97184.53;4220898;28;5751;-77
2023/05/02 06:40:04;;;;;;;;;;;;;;;16.75;55.76;97181.03;4220513;28;5667;-77
2023/05/02 06:42:07;;;;;;;;;;;;;;;16.76;55.33;97182.69;4220597;28;5613;-78
2023/05/02 06:44:11;;;;;;;;;;;;;;;16.72;55.56;97178.81;4221245;28;5738;-77
2023/05/02 06:46:16;;;;;;;;;;;;;;;16.73;55.57;97185.78;4220940;28;5178;-77
2023/05/02 06:48:19;;;;;;;;;;;;;;;16.76;55.53;97180.03;4221001;28;7707;-78
2023/05/02 06:50:23;;;;;;;;;;;;;;;16.71;55.42;97190.53;4220822;28;5927;-77
2023/05/02 06:52:26;;;;;;;;;;;;;;;16.71;55.46;97185.19;4221211;28;5679;-78
2023/05/02 06:54:29;;;;;;;;;;;;;;;16.73;55.21;97185.78;4220611;28;5625;-78
2023/05/02 06:56:32;;;;;;;;;;;;;;;16.69;55.12;97186.47;4220816;28;5675;-79
2023/05/02 06:58:35;;;;;;;;;;;;;;;16.71;55.07;97197.75;4221366;28;5743;-78
2023/05/02 07:00:38;;;;;;;;;;;;;;;16.74;55.10;97190.09;4221170;28;5727;-78
2023/05/02 07:02:43;;;;;;;;;;;;;;;16.77;54.95;97184.31;4221455;28;5829;-79
2023/05/02 07:04:46;;;;;;;;;;;;;;;16.77;54.84;97200.34;4221271;28;5709;-77
2023/05/02 07:06:49;;;;;;;;;;;;;;;16.73;54.62;97191.13;4220811;28;5848;-77
2023/05/02 07:08:52;;;;;;;;;;;;;;;16.73;54.85;97204.47;4220951;28;5705;-78
2023/05/02 07:10:55;;;;;;;;;;;;;;;16.70;54.50;97196.91;4220642;28;5743;-77
2023/05/02 07:12:58;;;;;;;;;;;;;;;16.68;54.50;97196.34;4220330;28;5679;-77
2023/05/02 07:15:01;;;;;;;;;;;;;;;16.62;54.37;97202.50;4220447;28;5794;-77
2023/05/02 07:17:04;;;;;;;;;;;;;;;16.51;54.22;97198.72;4220217;28;5605;-77
2023/05/02 07:19:09;;;;;;;;;;;;;;;16.42;54.43;97185.88;4207273;28;5722;-77
2023/05/02 07:21:12;;;;;;;;;;;;;;;16.37;54.12;97188.41;4220218;28;5088;-77
2023/05/02 07:23:15;;;;;;;;;;;;;;;16.39;54.33;97186.31;4219839;28;5629;-77
2023/05/02 07:25:18;;;;;;;;;;;;;;;16.43;54.31;97182.19;4220183;28;5640;-77
2023/05/02 07:27:20;;;;;;;;;;;;;;;16.44;54.16;97189.16;4220225;28;5667;-77
2023/05/02 07:29:25;;;;;;;;;;;;;;;16.38;54.13;97177.50;4219942;28;5747;-76
2023/05/02 07:31:28;;;;;;;;;;;;;;;16.39;54.21;97186.31;4219919;28;5712;-78
2023/05/02 07:33:31;;;;;;;;;;;;;;;16.37;54.05;97178.53;4220077;28;5798;-76
2023/05/02 07:35:36;;;;;;;;;;;;;;;16.37;53.70;97191.06;4219085;28;5715;-76
2023/05/02 07:37:39;;;;;;;;;;;;;;;16.33;53.69;97177.38;4219958;28;5628;-76
2023/05/02 07:39:42;;;;;;;;;;;;;;;16.33;53.73;97179.22;4219617;28;5101;-76
2023/05/02 07:41:45;;;;;;;;;;;;;;;16.34;53.59;97173.66;4219757;28;5780;-77
2023/05/02 07:43:48;;;;;;;;;;;;;;;16.33;53.64;97176.56;4185170;28;5650;-76
2023/05/02 07:45:51;;;;;;;;;;;;;;;16.37;53.36;97183.06;4219512;28;5636;-76
2023/05/02 07:47:54;;;;;;;;;;;;;;;16.43;53.38;97176.88;4219604;28;5730;-77
2023/05/02 07:49:57;;;;;;;;;;;;;;;16.46;53.34;97179.09;4219761;28;6314;-77
2023/05/02 07:52:02;;;;;;;;;;;;;;;16.52;53.26;97164.84;4219607;28;5684;-77
2023/05/02 07:54:15;;;;;;;;;;;;;;;16.49;52.83;97176.78;4219757;28;6587;-77
2023/05/02 07:56:18;;;;;;;;;;;;;;;16.50;52.90;97188.28;4219566;28;5680;-75
2023/05/02 07:58:22;;;;;;;;;;;;;;;16.50;53.05;97180.25;4219459;28;5751;-76
2023/05/02 08:00:26;;;;;;;;;;;;;;;16.52;52.72;97160.31;4219463;28;6696;-77
2023/05/02 08:02:29;;;;;;;;;;;;;;;16.53;52.86;97177.97;4219293;28;5680;-77
2023/05/02 08:04:40;;;;;;;;;;;;;;;16.57;52.78;97173.00;4219343;28;5660;-76
2023/05/02 08:06:44;;;;;;;;;;;;;;;16.60;52.77;97172.56;4219556;28;5612;-77
2023/05/02 08:08:49;;;;;;;;;;;;;;;16.65;52.77;97170.06;4219593;28;5609;-79
2023/05/02 08:10:52;;;;;;;;;;;;;;;16.67;52.45;97167.97;4219664;28;5653;-77
2023/05/02 08:12:55;;;;;;;;;;;;;;;16.67;52.22;97167.97;4218916;28;5626;-78
2023/05/02 08:14:58;;;;;;;;;;;;;;;16.66;52.24;97176.22;4219274;28;5790;-78
2023/05/02 08:17:01;;;;;;;;;;;;;;;16.69;52.04;97165.13;4219199;28;5621;-78
2023/05/02 08:19:08;;;;;;;;;;;;;;;16.74;52.03;97181.25;4219477;28;5676;-78
2023/05/02 08:21:11;;;;;;;;;;;;;;;16.78;51.92;97180.63;4219405;28;5474;-77
2023/05/02 08:23:15;;;;;;;;;;;;;;;16.86;51.97;97172.28;4218934;28;7683;-78
2023/05/02 08:25:20;;;;;;;;;;;;;;;16.95;51.64;97177.34;4209499;28;5627;-78
2023/05/02 08:27:22;;;;;;;;;;;;;;;17.01;51.63;97181.78;4214577;28;5620;-78
2023/05/02 08:29:27;;;;;;;;;;;;;;;17.03;51.36;97185.88;4219105;28;5640;-78
2023/05/02 08:31:30;;;;;;;;;;;;;;;17.05;51.48;97174.94;4219568;28;5790;-78
2023/05/02 08:33:33;;;;;;;;;;;;;;;17.09;51.29;97181.47;4219321;28;5673;-78
2023/05/02 08:35:36;;;;;;;;;;;;;;;17.10;51.21;97186.59;4218964;28;5621;-78
2023/05/02 08:37:39;;;;;;;;;;;;;;;17.12;51.18;97176.50;4219186;28;5801;-77
2023/05/02 08:39:44;;;;;;;;;;;;;;;17.16;51.07;97183.03;4219058;28;5637;-78
2023/05/02 08:41:51;;;;;;;;;;;;;;;17.21;50.94;97182.34;4201947;28;5705;-78
2023/05/02 08:43:56;;;;;;;;;;;;;;;17.24;50.96;97171.22;4211560;28;5701;-78
2023/05/02 08:46:01;;;;;;;;;;;;;;;17.28;50.89;97182.25;4218715;28;5679;-78
2023/05/02 08:48:07;;;;;;;;;;;;;;;17.29;50.77;97176.69;4218470;28;5675;-78
2023/05/02 08:50:11;;;;;;;;;;;;;;;17.30;50.66;97170.28;4218636;28;5629;-78
2023/05/02 08:52:15;;;;;;;;;;;;;;;17.30;50.57;97189.00;4218295;28;5727;-78
2023/05/02 08:54:21;;;;;;;;;;;;;;;17.32;50.50;97191.44;4218591;28;5679;-78
2023/05/02 08:56:25;;;;;;;;;;;;;;;17.34;50.58;97192.06;4218551;28;5665;-78
2023/05/02 08:58:30;;;;;;;;;;;;;;;17.36;50.33;97193.47;4218339;28;6784;-77
2023/05/02 09:00:39;;;;;;;;;;;;;;;17.34;50.04;97189.38;4218497;28;5605;-77
2023/05/02 09:02:59;;;;;;;;;;;;;;;17.35;49.99;97183.81;4218518;28;5660;-77
2023/05/02 09:05:07;;;;;;;;;;;;;;;17.37;49.89;97180.91;4212662;28;5938;-77
2023/05/02 09:07:10;;;;;;;;;;;;;;;17.40;50.03;97183.13;4219090;28;5746;-76
2023/05/02 09:09:13;;;;;;;;;;;;;;;17.46;49.87;97183.03;4218396;28;5764;-77
2023/05/02 09:11:21;;;;;;;;;;;;;;;17.52;49.70;97191.19;4218763;28;5668;-77
2023/05/02 09:13:36;;;;;;;;;;;;;;;17.53;49.85;97190.13;4219346;28;5608;-76
2023/05/02 09:15:39;;;;;;;;;;;;;;;17.55;49.78;97182.69;4222418;28;5672;-76
2023/05/02 09:17:43;;;;;;;;;;;;;;;17.57;49.79;97183.31;4222188;28;5838;-76
2023/05/02 09:19:46;;;;;;;;;;;;;;;17.64;49.66;97192.03;4205156;28;5659;-77
2023/05/02 09:21:50;;;;;;;;;;;;;;;17.68;49.58;97178.00;4219469;28;5678;-76
2023/05/02 09:23:55;;;;;;;;;;;;;;;17.70;49.50;97183.13;4219081;28;6261;-77
2023/05/02 09:25:58;;;;;;;;;;;;;;;17.68;49.46;97186.00;4218633;28;5101;-77
2023/05/02 09:28:02;;;;;;;;;;;;;;;17.70;49.38;97194.66;4200110;28;5643;-76
2023/05/02 09:30:30;;;;;;;;;;;;;;;17.75;49.42;97191.28;4217857;28;5827;-76
2023/05/02 09:32:45;;;;;;;;;;;;;;;17.73;49.01;97199.53;4188944;28;5609;-76
2023/05/02 09:35:04;;;;;;;;;;;;;;;17.75;49.09;97191.28;4217994;28;5845;-76
2023/05/02 09:37:09;;;;;;;;;;;;;;;17.80;48.91;97196.78;4218017;28;6365;-76
2023/05/02 09:39:14;;;;;;;;;;;;;;;17.83;49.00;97187.47;4218052;28;6326;-76
2023/05/02 09:41:18;;;;;;;;;;;;;;;17.86;48.84;97198.50;4217011;28;5758;-76
2023/05/02 09:43:22;;;;;;;;;;;;;;;17.86;48.40;97201.19;4217494;28;6049;-76
2023/05/02 09:45:26;;;;;;;;;;;;;;;17.84;48.24;97195.25;4218051;28;5689;-77
2023/05/02 09:47:32;;;;;;;;;;;;;;;17.83;48.28;97193.63;4218201;28;5609;-76
2023/05/02 09:49:43;;;;;;;;;;;;;;;17.91;48.35;97193.31;4218112;28;5704;-76
2023/05/02 09:51:47;;;;;;;;;;;;;;;17.93;47.99;97185.88;4218194;28;5616;-76
2023/05/02 09:53:51;;;;;;;;;;;;;;;17.94;48.06;97192.84;4218073;28;5612;-77
2023/05/02 09:56:00;;;;;;;;;;;;;;;17.97;48.15;97192.38;4218036;28;5620;-77
2023/05/02 09:58:04;;;;;;;;;;;;;;;18.02;48.05;97194.38;4217924;28;5707;-77
2023/05/02 10:00:09;;;;;;;;;;;;;;;18.06;48.06;97186.69;4220391;28;5654;-77
2023/05/02 10:02:12;;;;;;;;;;;;;;;18.06;48.01;97192.84;4220720;28;5637;-76
2023/05/02 10:04:19;;;;;;;;;;;;;;;18.09;47.82;97191.56;4221159;28;5616;-77
2023/05/02 10:06:22;;;;;;;;;;;;;;;18.09;47.71;97203.09;4221182;28;5612;-77
2023/05/02 10:08:27;;;;;;;;;;;;;;;18.07;47.70;97201.69;4220769;28;5632;-77
2023/05/02 10:10:35;;;;;;;;;;;;;;;18.09;47.63;97194.25;4220936;28;5636;-76
2023/05/02 10:12:39;;;;;;;;;;;;;;;18.11;47.57;97203.66;4220922;28;5631;-77
2023/05/02 10:14:48;;;;;;;;;;;;;;;18.14;47.51;97194.38;4220760;28;5961;-77
2023/05/02 10:17:00;;;;;;;;;;;;;;;18.16;47.77;97211.03;4220862;28;7789;-77
2023/05/02 10:19:07;;;;;;;;;;;;;;;18.26;47.61;97196.03;4220933;28;5620;-77
2023/05/02 10:21:14;;;;;;;;;;;;;;;18.31;47.51;97206.84;4220881;28;6298;-76
2023/05/02 10:23:19;;;;;;;;;;;;;;;18.35;47.27;97207.22;4202451;28;5647;-76
2023/05/02 10:25:23;;;;;;;;;;;;;;;18.39;47.01;97203.00;4204030;28;5678;-76
2023/05/02 10:27:30;;;;;;;;;;;;;;;18.37;47.19;97202.44;4203893;28;5701;-76
2023/05/02 10:29:34;;;;;;;;;;;;;;;18.38;47.17;97200.56;4202416;28;5726;-76
2023/05/02 10:31:39;;;;;;;;;;;;;;;18.40;46.85;97198.47;4204102;28;5697;-77
2023/05/02 10:33:46;;;;;;;;;;;;;;;18.42;46.68;97188.34;4203866;28;5764;-77
2023/05/02 10:35:50;;;;;;;;;;;;;;;18.43;46.52;97187.28;4195861;28;5714;-78
2023/05/02 10:37:55;;;;;;;;;;;;;;;18.48;46.63;97192.78;4203354;28;5701;-77
2023/05/02 10:39:59;;;;;;;;;;;;;;;18.52;46.11;97191.25;4203743;28;5808;-77
2023/05/02 10:42:04;;;;;;;;;;;;;;;18.54;46.25;97184.59;4203221;28;6414;-78
2023/05/02 10:44:11;;;;;;;;;;;;;;;18.58;46.23;97184.97;4203646;28;5701;-77
2023/05/02 10:46:33;;;;;;;;;;;;;;;18.63;45.97;97183.19;4203666;28;6371;-77
2023/05/02 10:48:37;;;;;;;;;;;;;;;18.66;45.82;97181.13;4203583;28;5815;-77
2023/05/02 10:50:46;;;;;;;;;;;;;;;18.69;45.71;97180.66;4203818;28;5690;-77
2023/05/02 10:52:49;;;;;;;;;;;;;;;18.70;45.59;97182.31;4203183;28;5848;-77
2023/05/02 10:55:13;;;;;;;;;;;;;;;18.71;45.40;97182.06;4203424;28;5693;-77
2023/05/02 10:57:16;;;;;;;;;;;;;;;18.73;45.29;97179.97;4203434;28;5682;-76
2023/05/02 10:59:30;;;;;;;;;;;;;;;18.76;45.03;97187.53;4203153;28;5717;-77
2023/05/02 11:01:36;;;;;;;;;;;;;;;18.80;45.04;97179.81;4203186;28;5681;-76
2023/05/02 11:03:56;;;;;;;;;;;;;;;18.81;44.85;97181.47;4203077;28;5693;-77
2023/05/02 11:06:06;;;;;;;;;;;;;;;18.85;44.64;97190.66;4188285;28;5770;-77
2023/05/02 11:08:31;;;;;;;;;;;;;;;18.88;44.64;97187.50;4203046;28;5867;-77
2023/05/02 11:10:35;;;;;;;;;;;;;;;18.92;44.38;97180.63;4203287;28;5701;-77
2023/05/02 11:12:46;;;;;;;;;;;;;;;18.93;44.19;97178.78;4202463;28;5779;-77
2023/05/02 11:14:49;;;;;;;;;;;;;;;18.93;44.35;97163.50;4202305;28;5832;-77
2023/05/02 11:17:06;;;;;;;;;;;;;;;18.94;44.14;97167.81;4203279;28;5686;-77
2023/05/02 11:19:09;;;;;;;;;;;;;;;18.99;44.23;97180.50;4203168;28;5828;-77
2023/05/02 11:21:28;;;;;;;;;;;;;;;19.04;44.16;97173.38;4202857;28;5722;-77
2023/05/02 11:23:35;;;;;;;;;;;;;;;19.07;43.97;97172.91;4217113;28;5668;-76
2023/05/02 11:25:42;;;;;;;;;;;;;;;19.09;44.23;97176.16;4219360;28;6543;-78
2023/05/02 11:27:48;;;;;;;;;;;;;;;19.10;43.68;97182.31;4211045;28;5601;-76
2023/05/02 11:29:54;;;;;;;;;;;;;;;19.14;43.83;97178.09;4218893;28;5667;-76
2023/05/02 11:31:57;;;;;;;;;;;;;;;19.18;43.71;97181.97;4209605;28;5619;-77
2023/05/02 11:34:01;;;;;;;;;;;;;;;19.17;43.57;97181.16;4219715;28;5736;-78
2023/05/02 11:36:04;;;;;;;;;;;;;;;19.22;43.52;97168.88;4219477;28;5767;-77
2023/05/02 11:38:11;;;;;;;;;;;;;;;19.22;43.20;97184.97;4219368;28;5679;-77
2023/05/02 11:40:15;;;;;;;;;;;;;;;19.19;43.41;97181.72;4218995;28;5089;-78
2023/05/02 11:42:29;;;;;;;;;;;;;;;19.22;42.98;97183.09;4219004;28;5684;-78
2023/05/02 11:44:32;;;;;;;;;;;;;;;19.23;43.05;97176.69;4219316;28;5676;-78
2023/05/02 11:46:38;;;;;;;;;;;;;;;19.25;42.96;97181.81;4219479;28;5616;-77
2023/05/02 11:48:41;;;;;;;;;;;;;;;19.28;42.91;97184.03;4219313;28;5680;-78
2023/05/02 11:50:45;;;;;;;;;;;;;;;19.26;42.69;97175.41;4219000;28;7261;-77
2023/05/02 11:52:52;;;;;;;;;;;;;;;19.29;42.84;97185.66;4218994;28;5617;-77
2023/05/02 11:54:55;;;;;;;;;;;;;;;19.30;42.71;97180.03;4219284;28;5671;-77
2023/05/02 11:57:01;;;;;;;;;;;;;;;19.27;42.80;97174.34;4219135;28;5628;-77
2023/05/02 11:59:07;;;;;;;;;;;;;;;19.31;43.00;97183.53;4218583;28;5660;-78
2023/05/02 12:01:14;;;;;;;;;;;;;;;19.32;42.61;97185.16;4219322;28;5756;-78
2023/05/02 12:03:31;;;;;;;;;;;;;;;19.31;42.67;97175.50;4218784;28;5617;-77
2023/05/02 12:05:34;;;;;;;;;;;;;;;19.30;42.52;97171.19;4218623;28;5688;-77
2023/05/02 12:07:38;;;;;;;;;;;;;;;19.33;42.74;97171.53;4218971;28;5808;-77
2023/05/02 12:09:51;;;;;;;;;;;;;;;19.38;42.47;97173.50;4218786;28;5755;-78
2023/05/02 12:11:54;;;;;;;;;;;;;;;19.44;42.54;97177.88;4218667;28;5058;-77
2023/05/02 12:13:57;;;;;;;;;;;;;;;19.45;42.52;97179.50;4218134;28;5621;-77
2023/05/02 12:16:03;;;;;;;;;;;;;;;19.46;42.30;97173.09;4218491;28;5617;-78
2023/05/02 12:18:07;;;;;;;;;;;;;;;19.46;42.30;97170.41;4218598;28;5621;-76
2023/05/02 12:20:11;;;;;;;;;;;;;;;19.47;41.97;97166.66;4218692;28;6330;-77
2023/05/02 12:22:15;;;;;;;;;;;;;;;19.52;42.04;97176.69;4217396;28;5668;-76
2023/05/02 12:24:18;;;;;;;;;;;;;;;19.50;42.14;97174.25;4218183;28;5775;-77
2023/05/02 12:26:24;;;;;;;;;;;;;;;19.54;42.05;97178.06;4218155;28;5609;-77
2023/05/02 12:28:27;;;;;;;;;;;;;;;19.57;41.74;97193.72;4218137;28;5613;-77
2023/05/02 12:30:31;;;;;;;;;;;;;;;19.58;41.88;97187.28;4218250;28;5621;-76
2023/05/02 12:32:37;;;;;;;;;;;;;;;19.58;41.62;97173.88;4217960;28;5776;-76
2023/05/02 12:34:41;;;;;;;;;;;;;;;19.60;41.37;97179.84;4209124;28;5709;-75
2023/05/02 12:36:44;;;;;;;;;;;;;;;19.63;41.21;97184.72;4218093;28;5684;-76
2023/05/02 12:38:52;;;;;;;;;;;;;;;19.64;41.36;97182.84;4210002;28;5608;-76
2023/05/02 12:40:57;;;;;;;;;;;;;;;19.64;41.30;97182.84;4217084;28;5676;-76
2023/05/02 12:43:02;;;;;;;;;;;;;;;19.67;40.98;97177.81;4217854;28;5609;-76
2023/05/02 12:45:17;;;;;;;;;;;;;;;19.70;41.09;97182.69;4217904;28;5821;-77
2023/05/02 12:47:21;;;;;;;;;;;;;;;19.72;41.07;97180.59;4217807;28;5747;-77
2023/05/02 12:49:25;;;;;;;;;;;;;;;19.75;41.13;97179.28;4218148;28;5665;-77
2023/05/02 12:51:30;;;;;;;;;;;;;;;19.77;40.72;97183.34;4217993;28;5699;-77
2023/05/02 12:53:40;;;;;;;;;;;;;;;19.82;40.58;97184.47;4217729;28;5668;-77
2023/05/02 12:55:44;;;;;;;;;;;;;;;19.82;40.47;97179.13;4217960;28;5620;-77
2023/05/02 12:57:48;;;;;;;;;;;;;;;19.79;40.87;97196.50;4217850;28;5733;-76
2023/05/02 12:59:53;;;;;;;;;;;;;;;19.77;40.81;97187.91;4217601;28;6100;-76
2023/05/02 13:01:56;;;;;;;;;;;;;;;19.79;41.02;97169.69;4217282;28;6775;-77
2023/05/02 13:03:59;;;;;;;;;;;;;;;19.80;40.85;97170.50;4217493;28;5947;-76
2023/05/02 13:06:03;;;;;;;;;;;;;;;19.83;40.93;97176.22;4217572;28;6359;-75
2023/05/02 13:08:07;;;;;;;;;;;;;;;19.85;40.68;97184.00;4216943;28;5680;-76
2023/05/02 13:10:11;;;;;;;;;;;;;;;19.83;40.71;97175.41;4217694;28;5601;-77
2023/05/02 13:12:13;;;;;;;;;;;;;;;19.84;40.66;97166.28;4217271;28;6557;-77
2023/05/02 13:14:17;;;;;;;;;;;;;;;19.85;40.75;97170.59;4217095;28;5672;-77
2023/05/02 13:16:20;;;;;;;;;;;;;;;19.87;40.58;97177.34;4217481;28;5621;-77
2023/05/02 13:18:23;;;;;;;;;;;;;;;19.91;40.66;97172.28;4217478;28;5660;-76
2023/05/02 13:20:26;;;;;;;;;;;;;;;19.96;40.39;97177.78;4217152;28;5731;-76
2023/05/02 13:22:30;;;;;;;;;;;;;;;19.97;40.62;97182.06;4216997;28;5609;-77
2023/05/02 13:24:34;;;;;;;;;;;;;;;19.90;40.42;97179.53;4217278;28;5770;-76
2023/05/02 13:26:37;;;;;;;;;;;;;;;19.86;40.27;97180.28;4216983;28;5707;-75
2023/05/02 13:28:41;;;;;;;;;;;;;;;19.84;40.21;97179.72;4216915;28;5093;-75
2023/05/02 13:30:44;;;;;;;;;;;;;;;19.83;40.36;97178.09;4217535;28;5620;-77
2023/05/02 13:32:47;;;;;;;;;;;;;;;19.83;40.08;97178.09;4209222;28;5640;-76
2023/05/02 13:34:50;;;;;;;;;;;;;;;19.83;40.32;97170.03;4219917;28;5732;-77
2023/05/02 13:36:53;;;;;;;;;;;;;;;19.87;40.33;97176.53;4220730;28;5832;-77
2023/05/02 13:38:57;;;;;;;;;;;;;;;19.95;40.44;97162.72;4220286;28;5606;-77
2023/05/02 13:41:00;;;;;;;;;;;;;;;20.03;40.07;97175.72;4220808;28;5704;-77
2023/05/02 13:43:03;;;;;;;;;;;;;;;20.10;39.89;97152.22;4220350;28;5620;-77
2023/05/02 13:45:07;;;;;;;;;;;;;;;20.12;39.84;97163.53;4220382;28;5696;-76
2023/05/02 13:47:10;;;;;;;;;;;;;;;20.14;39.73;97168.63;4220664;28;5695;-75
2023/05/02 13:49:13;;;;;;;;;;;;;;;20.09;39.93;97169.38;4220745;28;5609;-75
2023/05/02 13:51:16;;;;;;;;;;;;;;;20.01;39.96;97172.47;4220653;28;6169;-76
2023/05/02 13:53:19;;;;;;;;;;;;;;;19.93;39.84;97170.19;4220511;28;5684;-74
2023/05/02 13:55:23;;;;;;;;;;;;;;;19.87;39.77;97176.53;4220269;28;5683;-73
2023/05/02 13:57:26;;;;;;;;;;;;;;;19.87;39.73;97176.53;4219929;28;5729;-74
2023/05/02 13:59:29;;;;;;;;;;;;;;;19.87;40.04;97171.16;4220453;28;5676;-75
2023/05/02 14:01:32;;;;;;;;;;;;;;;19.87;39.79;97179.22;4220505;28;5601;-76
2023/05/02 14:03:35;;;;;;;;;;;;;;;19.88;39.55;97162.06;4222385;28;5664;-75
2023/05/02 14:05:42;;;;;;;;;;;;;;;19.90;39.78;97173.34;4222486;28;5108;-75
2023/05/02 14:07:46;;;;;;;;;;;;;;;19.91;39.77;97167.75;4222313;28;5601;-76
2023/05/02 14:09:49;;;;;;;;;;;;;;;19.92;39.77;97157.81;4206130;28;5742;-76
2023/05/02 14:11:54;;;;;;;;;;;;;;;19.91;39.56;97156.19;4207207;28;5710;-76
2023/05/02 14:13:58;;;;;;;;;;;;;;;19.96;39.68;97158.97;4217109;28;5627;-78
2023/05/02 14:16:01;;;;;;;;;;;;;;;20.00;39.25;97162.78;4224379;28;5914;-75
2023/05/02 14:18:05;;;;;;;;;;;;;;;20.03;39.18;97154.25;4223970;28;5905;-75
2023/05/02 14:20:09;;;;;;;;;;;;;;;20.04;39.11;97158.56;4223238;28;5690;-76
2023/05/02 14:22:12;;;;;;;;;;;;;;;20.04;39.31;97169.28;4217287;28;5834;-76
2023/05/02 14:24:17;;;;;;;;;;;;;;;20.02;39.16;97174.09;4222403;28;5613;-75
2023/05/02 14:26:20;;;;;;;;;;;;;;;19.99;38.72;97174.59;4223697;28;5613;-75
2023/05/02 14:28:25;;;;;;;;;;;;;;;19.97;38.90;97172.16;4223453;28;5620;-76
2023/05/02 14:30:30;;;;;;;;;;;;;;;19.98;38.87;97172.97;4216662;28;5101;-76
2023/05/02 14:32:33;;;;;;;;;;;;;;;20.00;38.79;97179.72;4221621;28;5621;-75
2023/05/02 14:34:36;;;;;;;;;;;;;;;20.01;38.76;97173.28;4221031;28;5605;-74
2023/05/02 14:36:39;;;;;;;;;;;;;;;20.04;38.79;97161.25;4224107;28;5704;-73
2023/05/02 14:38:42;;;;;;;;;;;;;;;20.08;38.58;97167.75;4223149;28;5639;-75
2023/05/02 14:40:45;;;;;;;;;;;;;;;20.10;38.35;97165.66;4222260;28;5628;-75
2023/05/02 14:42:48;;;;;;;;;;;;;;;20.14;38.40;97165.97;4218271;28;5658;-75
2023/05/02 14:44:52;;;;;;;;;;;;;;;20.18;38.54;97156.38;4216286;28;5691;-76
2023/05/02 14:46:56;;;;;;;;;;;;;;;20.18;38.42;97165.25;4207969;28;6420;-77
2023/05/02 14:48:59;;;;;;;;;;;;;;;20.20;38.16;97154.25;4218625;28;5759;-75
2023/05/02 14:51:03;;;;;;;;;;;;;;;20.19;37.94;97163.38;4210821;28;5697;-75
2023/05/02 14:53:06;;;;;;;;;;;;;;;20.14;38.12;97156.03;4221958;28;5648;-75
2023/05/02 14:55:10;;;;;;;;;;;;;;;20.14;38.39;97160.59;4220560;28;5710;-75
2023/05/02 14:57:14;;;;;;;;;;;;;;;20.14;37.87;97156.03;4222953;28;5605;-75
2023/05/02 14:59:17;;;;;;;;;;;;;;;20.12;38.26;97151.97;4203126;28;5623;-74
2023/05/02 15:01:24;;;;;;;;;;;;;;;20.12;38.04;97157.34;4222524;28;5675;-75
2023/05/02 15:03:27;;;;;;;;;;;;;;;20.13;37.62;97167.03;4219999;28;6288;-75
2023/05/02 15:05:30;;;;;;;;;;;;;;;20.12;37.54;97149.28;4216760;28;5612;-75
2023/05/02 15:07:33;;;;;;;;;;;;;;;20.13;37.66;97146.34;4217218;28;5740;-75
2023/05/02 15:09:36;;;;;;;;;;;;;;;20.15;37.85;97143.44;4220429;28;5605;-75
2023/05/02 15:11:40;;;;;;;;;;;;;;;20.15;37.87;97143.44;4212813;28;5897;-74
2023/05/02 15:13:42;;;;;;;;;;;;;;;20.17;37.61;97138.66;4216084;28;5663;-75
2023/05/02 15:15:46;;;;;;;;;;;;;;;20.19;37.70;97137.34;4213922;28;5699;-74
2023/05/02 15:17:51;;;;;;;;;;;;;;;20.21;37.98;97150.50;4217930;28;5623;-74
2023/05/02 15:19:54;;;;;;;;;;;;;;;20.24;37.63;97150.00;4217113;28;5617;-74
2023/05/02 15:22:00;;;;;;;;;;;;;;;20.26;37.53;97142.53;4218666;28;5787;-74
2023/05/02 15:24:04;;;;;;;;;;;;;;;20.28;37.47;97146.59;4212679;28;5752;-74
2023/05/02 15:26:07;;;;;;;;;;;;;;;20.29;37.68;97148.22;4214695;28;6486;-74
2023/05/02 15:28:10;;;;;;;;;;;;;;;20.29;37.77;97139.38;4213316;28;5706;-75
2023/05/02 15:30:13;;;;;;;;;;;;;;;20.28;37.76;97151.16;4216900;28;5830;-75
2023/05/02 15:32:20;;;;;;;;;;;;;;;20.28;37.70;97154.66;4212917;28;5767;-75
2023/05/02 15:34:24;;;;;;;;;;;;;;;20.27;37.76;97157.56;4216375;28;5794;-75
2023/05/02 15:36:28;;;;;;;;;;;;;;;20.26;37.72;97154.06;4215732;28;5609;-75
2023/05/02 15:38:32;;;;;;;;;;;;;;;20.25;37.55;97155.13;4216691;28;5749;-75
2023/05/02 15:40:35;;;;;;;;;;;;;;;20.27;37.24;97153.03;4215611;28;5612;-75
2023/05/02 15:42:38;;;;;;;;;;;;;;;20.27;37.50;97160.25;4219881;28;5632;-75
2023/05/02 15:44:41;;;;;;;;;;;;;;;20.27;37.08;97149.50;4216860;28;5736;-74
2023/05/02 15:46:45;;;;;;;;;;;;;;;20.27;37.32;97150.34;4218224;28;6282;-77
2023/05/02 15:48:49;;;;;;;;;;;;;;;20.30;37.10;97151.72;4218893;28;5687;-74
2023/05/02 15:50:53;;;;;;;;;;;;;;;20.32;37.16;97163.03;4218510;28;5711;-76
2023/05/02 15:52:56;;;;;;;;;;;;;;;20.33;37.23;97165.47;4219949;28;5629;-76
2023/05/02 15:55:00;;;;;;;;;;;;;;;20.35;37.00;97178.63;4216108;28;6171;-75
2023/05/02 15:57:03;;;;;;;;;;;;;;;20.33;37.05;97168.16;4218101;28;5719;-79
2023/05/02 15:59:06;;;;;;;;;;;;;;;20.28;37.06;97170.78;4216526;28;5832;-76
2023/05/02 16:01:09;;;;;;;;;;;;;;;20.24;36.94;97172.28;4214259;28;5616;-77
2023/05/02 16:03:12;;;;;;;;;;;;;;;20.18;36.89;97169.78;4214934;28;5710;-77
2023/05/02 16:05:16;;;;;;;;;;;;;;;20.16;36.66;97170.03;4213849;28;6338;-77
2023/05/02 16:07:20;;;;;;;;;;;;;;;20.15;36.85;97167.56;4213741;28;5711;-76
2023/05/02 16:09:23;;;;;;;;;;;;;;;20.16;36.85;97163.84;4211119;28;5847;-76
2023/05/02 16:11:26;;;;;;;;;;;;;;;20.16;36.53;97167.38;4195363;28;5670;-76
2023/05/02 16:13:29;;;;;;;;;;;;;;;20.18;36.60;97167.13;4214816;28;5612;-76
2023/05/02 16:15:32;;;;;;;;;;;;;;;20.19;36.12;97168.75;4212280;28;5620;-81
2023/05/02 16:17:35;;;;;;;;;;;;;;;20.18;36.09;97173.28;4215346;28;5736;-78
2023/05/02 16:19:37;;;;;;;;;;;;;;;20.16;36.39;97167.38;4213416;28;5796;-78
2023/05/02 16:21:41;;;;;;;;;;;;;;;20.19;36.23;97168.75;4210882;28;5986;-78